sensor_id;sensor_type;location;lat;lon;timestamp;P1;durP1;ratioP1;P2;durP2;ratioP2
3819;SDS011;1925;51.356;9.530;2023-06-10T00:01:35;9.47;;;8.50;;
3819;SDS011;1925;51.356;9.530;2023-06-10T00:04:01;8.57;;;7.77;;
3819;SDS011;1925;51.356;9.530;2023-06-10T00:06:27;8.77;;;7.97;;
3819;SDS011;1925;51.356;9.530;2023-06-10T00:09:00;11.90;;;8.30;;
3819;SDS011;1925;51.356;9.530;2023-06-10T00:11:26;8.67;;;7.83;;
3819;SDS011;1925;51.356;9.530;2023-06-10T00:13:52;8.77;;;7.90;;
3819;SDS011;1925;51.356;9.530;2023-06-10T00:16:18;9.17;;;8.37;;
3819;SDS011;1925;51.356;9.530;2023-06-10T00:18:44;8.20;;;7.30;;
3819;SDS011;1925;51.356;9.530;2023-06-10T00:21:10;8.63;;;7.00;;
3819;SDS011;1925;51.356;9.530;2023-06-10T00:23:38;10.43;;;8.20;;
3819;SDS011;1925;51.356;9.530;2023-06-10T00:26:04;9.37;;;8.10;;
3819;SDS011;1925;51.356;9.530;2023-06-10T00:28:31;7.97;;;7.20;;
3819;SDS011;1925;51.356;9.530;2023-06-10T00:30:57;9.00;;;8.10;;
3819;SDS011;1925;51.356;9.530;2023-06-10T00:33:23;7.20;;;6.53;;
3819;SDS011;1925;51.356;9.530;2023-06-10T00:35:49;7.40;;;6.57;;
3819;SDS011;1925;51.356;9.530;2023-06-10T00:38:15;7.03;;;6.33;;
3819;SDS011;1925;51.356;9.530;2023-06-10T00:40:41;7.60;;;6.77;;
3819;SDS011;1925;51.356;9.530;2023-06-10T00:43:07;7.60;;;6.90;;
3819;SDS011;1925;51.356;9.530;2023-06-10T00:45:33;7.03;;;6.07;;
3819;SDS011;1925;51.356;9.530;2023-06-10T00:47:59;6.83;;;6.17;;
3819;SDS011;1925;51.356;9.530;2023-06-10T00:50:26;12.00;;;6.83;;
3819;SDS011;1925;51.356;9.530;2023-06-10T00:52:53;7.40;;;6.70;;
3819;SDS011;1925;51.356;9.530;2023-06-10T00:55:19;7.07;;;5.90;;
3819;SDS011;1925;51.356;9.530;2023-06-10T00:57:45;6.27;;;5.77;;
3819;SDS011;1925;51.356;9.530;2023-06-10T01:00:13;6.60;;;6.03;;
3819;SDS011;1925;51.356;9.530;2023-06-10T01:02:40;6.57;;;5.73;;
3819;SDS011;1925;51.356;9.530;2023-06-10T01:05:06;9.43;;;6.20;;
3819;SDS011;1925;51.356;9.530;2023-06-10T01:07:40;6.97;;;6.27;;
3819;SDS011;1925;51.356;9.530;2023-06-10T01:10:16;7.10;;;5.93;;
3819;SDS011;1925;51.356;9.530;2023-06-10T01:12:43;6.20;;;5.60;;
3819;SDS011;1925;51.356;9.530;2023-06-10T01:15:14;6.47;;;5.20;;
3819;SDS011;1925;51.356;9.530;2023-06-10T01:17:56;6.30;;;5.70;;
3819;SDS011;1925;51.356;9.530;2023-06-10T01:20:22;8.17;;;6.33;;
3819;SDS011;1925;51.356;9.530;2023-06-10T01:22:49;7.70;;;5.73;;
3819;SDS011;1925;51.356;9.530;2023-06-10T01:25:16;7.27;;;6.57;;
3819;SDS011;1925;51.356;9.530;2023-06-10T01:27:42;6.43;;;5.83;;
3819;SDS011;1925;51.356;9.530;2023-06-10T01:30:19;6.73;;;6.13;;
3819;SDS011;1925;51.356;9.530;2023-06-10T01:32:48;8.70;;;5.13;;
3819;SDS011;1925;51.356;9.530;2023-06-10T01:35:15;5.90;;;5.30;;
3819;SDS011;1925;51.356;9.530;2023-06-10T01:37:43;6.00;;;5.40;;
3819;SDS011;1925;51.356;9.530;2023-06-10T01:40:11;6.93;;;5.67;;
3819;SDS011;1925;51.356;9.530;2023-06-10T01:42:37;7.43;;;5.43;;
3819;SDS011;1925;51.356;9.530;2023-06-10T01:45:03;7.03;;;5.57;;
3819;SDS011;1925;51.356;9.530;2023-06-10T01:47:29;5.70;;;5.20;;
3819;SDS011;1925;51.356;9.530;2023-06-10T01:49:55;8.30;;;5.50;;
3819;SDS011;1925;51.356;9.530;2023-06-10T01:52:21;10.63;;;6.60;;
3819;SDS011;1925;51.356;9.530;2023-06-10T01:54:47;8.73;;;7.00;;
3819;SDS011;1925;51.356;9.530;2023-06-10T01:57:13;6.00;;;5.47;;
3819;SDS011;1925;51.356;9.530;2023-06-10T01:59:39;7.10;;;6.40;;
3819;SDS011;1925;51.356;9.530;2023-06-10T02:02:07;8.27;;;6.50;;
3819;SDS011;1925;51.356;9.530;2023-06-10T02:04:33;6.57;;;5.87;;
3819;SDS011;1925;51.356;9.530;2023-06-10T02:06:59;6.30;;;5.70;;
3819;SDS011;1925;51.356;9.530;2023-06-10T02:09:28;6.30;;;5.63;;
3819;SDS011;1925;51.356;9.530;2023-06-10T02:11:54;6.40;;;5.80;;
3819;SDS011;1925;51.356;9.530;2023-06-10T02:14:20;7.60;;;6.70;;
3819;SDS011;1925;51.356;9.530;2023-06-10T02:16:46;7.20;;;6.50;;
3819;SDS011;1925;51.356;9.530;2023-06-10T02:19:12;11.33;;;7.10;;
3819;SDS011;1925;51.356;9.530;2023-06-10T02:21:38;14.10;;;5.90;;
3819;SDS011;1925;51.356;9.530;2023-06-10T02:24:04;6.10;;;5.50;;
3819;SDS011;1925;51.356;9.530;2023-06-10T02:26:31;6.83;;;6.23;;
3819;SDS011;1925;51.356;9.530;2023-06-10T02:28:57;9.43;;;5.80;;
3819;SDS011;1925;51.356;9.530;2023-06-10T02:31:23;6.70;;;6.10;;
3819;SDS011;1925;51.356;9.530;2023-06-10T02:33:50;6.33;;;5.77;;
3819;SDS011;1925;51.356;9.530;2023-06-10T02:36:16;5.37;;;4.30;;
3819;SDS011;1925;51.356;9.530;2023-06-10T02:38:42;10.20;;;4.93;;
3819;SDS011;1925;51.356;9.530;2023-06-10T02:41:08;5.30;;;4.80;;
3819;SDS011;1925;51.356;9.530;2023-06-10T02:43:34;7.50;;;5.87;;
3819;SDS011;1925;51.356;9.530;2023-06-10T02:46:00;5.67;;;4.90;;
3819;SDS011;1925;51.356;9.530;2023-06-10T02:48:26;6.60;;;6.00;;
3819;SDS011;1925;51.356;9.530;2023-06-10T02:50:53;12.87;;;6.50;;
3819;SDS011;1925;51.356;9.530;2023-06-10T02:53:20;6.60;;;6.00;;
3819;SDS011;1925;51.356;9.530;2023-06-10T02:55:46;5.63;;;5.10;;
3819;SDS011;1925;51.356;9.530;2023-06-10T02:58:12;9.77;;;6.10;;
3819;SDS011;1925;51.356;9.530;2023-06-10T03:00:38;9.33;;;6.00;;
3819;SDS011;1925;51.356;9.530;2023-06-10T03:03:06;16.90;;;6.60;;
3819;SDS011;1925;51.356;9.530;2023-06-10T03:05:32;7.00;;;6.30;;
3819;SDS011;1925;51.356;9.530;2023-06-10T03:07:58;7.33;;;6.43;;
3819;SDS011;1925;51.356;9.530;2023-06-10T03:10:24;6.90;;;6.20;;
3819;SDS011;1925;51.356;9.530;2023-06-10T03:12:50;7.50;;;5.57;;
3819;SDS011;1925;51.356;9.530;2023-06-10T03:15:16;8.10;;;5.90;;
3819;SDS011;1925;51.356;9.530;2023-06-10T03:17:42;8.10;;;6.77;;
3819;SDS011;1925;51.356;9.530;2023-06-10T03:20:08;6.90;;;6.07;;
3819;SDS011;1925;51.356;9.530;2023-06-10T03:22:35;8.60;;;5.70;;
3819;SDS011;1925;51.356;9.530;2023-06-10T03:25:02;6.37;;;4.70;;
3819;SDS011;1925;51.356;9.530;2023-06-10T03:27:28;8.00;;;5.10;;
3819;SDS011;1925;51.356;9.530;2023-06-10T03:29:55;7.03;;;6.33;;
3819;SDS011;1925;51.356;9.530;2023-06-10T03:32:21;6.93;;;5.90;;
3819;SDS011;1925;51.356;9.530;2023-06-10T03:34:47;8.80;;;5.73;;
3819;SDS011;1925;51.356;9.530;2023-06-10T03:37:13;6.60;;;6.03;;
3819;SDS011;1925;51.356;9.530;2023-06-10T03:39:39;7.20;;;6.60;;
3819;SDS011;1925;51.356;9.530;2023-06-10T03:42:05;6.30;;;5.70;;
3819;SDS011;1925;51.356;9.530;2023-06-10T03:44:31;17.10;;;7.33;;
3819;SDS011;1925;51.356;9.530;2023-06-10T03:46:57;6.63;;;6.03;;
3819;SDS011;1925;51.356;9.530;2023-06-10T03:49:24;7.97;;;5.90;;
3819;SDS011;1925;51.356;9.530;2023-06-10T03:51:53;6.63;;;6.03;;
3819;SDS011;1925;51.356;9.530;2023-06-10T03:54:20;8.97;;;6.50;;
3819;SDS011;1925;51.356;9.530;2023-06-10T03:56:46;7.80;;;5.90;;
3819;SDS011;1925;51.356;9.530;2023-06-10T03:59:13;8.03;;;5.60;;
3819;SDS011;1925;51.356;9.530;2023-06-10T04:01:39;6.40;;;5.20;;
3819;SDS011;1925;51.356;9.530;2023-06-10T04:04:06;7.10;;;4.97;;
3819;SDS011;1925;51.356;9.530;2023-06-10T04:06:32;7.87;;;5.87;;
3819;SDS011;1925;51.356;9.530;2023-06-10T04:08:58;6.27;;;5.57;;
3819;SDS011;1925;51.356;9.530;2023-06-10T04:11:24;6.03;;;5.43;;
3819;SDS011;1925;51.356;9.530;2023-06-10T04:13:50;10.43;;;5.87;;
3819;SDS011;1925;51.356;9.530;2023-06-10T04:16:16;6.70;;;5.00;;
3819;SDS011;1925;51.356;9.530;2023-06-10T04:18:42;8.43;;;5.57;;
3819;SDS011;1925;51.356;9.530;2023-06-10T04:21:08;6.93;;;5.67;;
3819;SDS011;1925;51.356;9.530;2023-06-10T04:23:37;7.30;;;5.20;;
3819;SDS011;1925;51.356;9.530;2023-06-10T04:26:03;6.97;;;5.30;;
3819;SDS011;1925;51.356;9.530;2023-06-10T04:28:30;7.63;;;5.40;;
3819;SDS011;1925;51.356;9.530;2023-06-10T04:30:56;6.33;;;5.43;;
3819;SDS011;1925;51.356;9.530;2023-06-10T04:33:22;5.60;;;4.50;;
3819;SDS011;1925;51.356;9.530;2023-06-10T04:35:49;7.63;;;5.50;;
3819;SDS011;1925;51.356;9.530;2023-06-10T04:38:15;7.67;;;5.80;;
3819;SDS011;1925;51.356;9.530;2023-06-10T04:40:41;6.63;;;5.20;;
3819;SDS011;1925;51.356;9.530;2023-06-10T04:43:16;6.87;;;5.20;;
3819;SDS011;1925;51.356;9.530;2023-06-10T04:45:42;7.00;;;5.60;;
3819;SDS011;1925;51.356;9.530;2023-06-10T04:48:11;8.53;;;5.20;;
3819;SDS011;1925;51.356;9.530;2023-06-10T04:50:37;7.63;;;6.60;;
3819;SDS011;1925;51.356;9.530;2023-06-10T04:53:03;7.80;;;6.90;;
3819;SDS011;1925;51.356;9.530;2023-06-10T04:55:29;14.63;;;5.73;;
3819;SDS011;1925;51.356;9.530;2023-06-10T04:57:56;9.80;;;5.73;;
3819;SDS011;1925;51.356;9.530;2023-06-10T05:00:22;8.73;;;5.80;;
3819;SDS011;1925;51.356;9.530;2023-06-10T05:02:48;9.20;;;6.87;;
3819;SDS011;1925;51.356;9.530;2023-06-10T05:05:15;7.00;;;6.30;;
3819;SDS011;1925;51.356;9.530;2023-06-10T05:07:41;7.47;;;6.53;;
3819;SDS011;1925;51.356;9.530;2023-06-10T05:10:07;8.13;;;6.40;;
3819;SDS011;1925;51.356;9.530;2023-06-10T05:12:33;6.93;;;5.87;;
3819;SDS011;1925;51.356;9.530;2023-06-10T05:14:59;16.90;;;8.70;;
3819;SDS011;1925;51.356;9.530;2023-06-10T05:17:26;7.83;;;5.40;;
3819;SDS011;1925;51.356;9.530;2023-06-10T05:19:52;6.73;;;5.73;;
3819;SDS011;1925;51.356;9.530;2023-06-10T05:22:18;6.60;;;5.90;;
3819;SDS011;1925;51.356;9.530;2023-06-10T05:24:44;7.50;;;6.70;;
3819;SDS011;1925;51.356;9.530;2023-06-10T05:27:10;9.03;;;6.80;;
3819;SDS011;1925;51.356;9.530;2023-06-10T05:29:36;6.50;;;5.90;;
3819;SDS011;1925;51.356;9.530;2023-06-10T05:32:02;10.13;;;6.30;;
3819;SDS011;1925;51.356;9.530;2023-06-10T05:34:31;6.53;;;5.77;;
3819;SDS011;1925;51.356;9.530;2023-06-10T05:36:57;5.53;;;5.00;;
3819;SDS011;1925;51.356;9.530;2023-06-10T05:39:23;8.43;;;6.17;;
3819;SDS011;1925;51.356;9.530;2023-06-10T05:41:49;8.57;;;6.27;;
3819;SDS011;1925;51.356;9.530;2023-06-10T05:44:15;6.83;;;4.93;;
3819;SDS011;1925;51.356;9.530;2023-06-10T05:46:41;5.83;;;4.50;;
3819;SDS011;1925;51.356;9.530;2023-06-10T05:49:07;5.40;;;4.63;;
3819;SDS011;1925;51.356;9.530;2023-06-10T05:51:33;7.00;;;4.43;;
3819;SDS011;1925;51.356;9.530;2023-06-10T05:53:59;5.03;;;4.20;;
3819;SDS011;1925;51.356;9.530;2023-06-10T05:56:25;5.53;;;4.90;;
3819;SDS011;1925;51.356;9.530;2023-06-10T05:58:51;5.33;;;4.13;;
3819;SDS011;1925;51.356;9.530;2023-06-10T06:01:17;5.10;;;4.60;;
3819;SDS011;1925;51.356;9.530;2023-06-10T06:03:43;5.07;;;3.87;;
3819;SDS011;1925;51.356;9.530;2023-06-10T06:06:09;7.27;;;3.97;;
3819;SDS011;1925;51.356;9.530;2023-06-10T06:08:35;4.93;;;3.67;;
3819;SDS011;1925;51.356;9.530;2023-06-10T06:11:01;4.80;;;3.87;;
3819;SDS011;1925;51.356;9.530;2023-06-10T06:13:27;7.03;;;3.93;;
3819;SDS011;1925;51.356;9.530;2023-06-10T06:15:53;4.30;;;3.87;;
3819;SDS011;1925;51.356;9.530;2023-06-10T06:18:19;6.00;;;3.90;;
3819;SDS011;1925;51.356;9.530;2023-06-10T06:20:45;5.63;;;3.67;;
3819;SDS011;1925;51.356;9.530;2023-06-10T06:23:11;4.53;;;4.10;;
3819;SDS011;1925;51.356;9.530;2023-06-10T06:25:37;5.77;;;3.73;;
3819;SDS011;1925;51.356;9.530;2023-06-10T06:28:05;4.83;;;4.33;;
3819;SDS011;1925;51.356;9.530;2023-06-10T06:30:31;5.37;;;3.93;;
3819;SDS011;1925;51.356;9.530;2023-06-10T06:32:57;10.60;;;4.73;;
3819;SDS011;1925;51.356;9.530;2023-06-10T06:35:24;4.50;;;3.80;;
3819;SDS011;1925;51.356;9.530;2023-06-10T06:37:49;5.40;;;4.17;;
3819;SDS011;1925;51.356;9.530;2023-06-10T06:40:15;6.80;;;4.10;;
3819;SDS011;1925;51.356;9.530;2023-06-10T06:42:41;5.00;;;3.50;;
3819;SDS011;1925;51.356;9.530;2023-06-10T06:45:07;4.83;;;4.33;;
3819;SDS011;1925;51.356;9.530;2023-06-10T06:47:33;5.93;;;3.93;;
3819;SDS011;1925;51.356;9.530;2023-06-10T06:49:59;4.07;;;3.13;;
3819;SDS011;1925;51.356;9.530;2023-06-10T06:52:25;4.73;;;3.77;;
3819;SDS011;1925;51.356;9.530;2023-06-10T06:54:51;6.50;;;3.93;;
3819;SDS011;1925;51.356;9.530;2023-06-10T06:57:17;5.20;;;3.43;;
3819;SDS011;1925;51.356;9.530;2023-06-10T06:59:43;5.17;;;4.67;;
3819;SDS011;1925;51.356;9.530;2023-06-10T07:02:09;5.20;;;3.77;;
3819;SDS011;1925;51.356;9.530;2023-06-10T07:04:35;6.73;;;4.90;;
3819;SDS011;1925;51.356;9.530;2023-06-10T07:07:01;6.70;;;3.87;;
3819;SDS011;1925;51.356;9.530;2023-06-10T07:09:27;6.73;;;3.77;;
3819;SDS011;1925;51.356;9.530;2023-06-10T07:11:53;4.97;;;3.40;;
3819;SDS011;1925;51.356;9.530;2023-06-10T07:14:19;4.20;;;3.80;;
3819;SDS011;1925;51.356;9.530;2023-06-10T07:16:45;3.93;;;3.63;;
3819;SDS011;1925;51.356;9.530;2023-06-10T07:19:13;9.20;;;3.50;;
3819;SDS011;1925;51.356;9.530;2023-06-10T07:21:39;6.20;;;4.63;;
3819;SDS011;1925;51.356;9.530;2023-06-10T07:24:05;3.83;;;3.47;;
3819;SDS011;1925;51.356;9.530;2023-06-10T07:26:31;3.47;;;2.90;;
3819;SDS011;1925;51.356;9.530;2023-06-10T07:28:57;6.00;;;3.93;;
3819;SDS011;1925;51.356;9.530;2023-06-10T07:31:23;5.17;;;4.57;;
3819;SDS011;1925;51.356;9.530;2023-06-10T07:33:49;5.90;;;4.30;;
3819;SDS011;1925;51.356;9.530;2023-06-10T07:36:15;6.00;;;3.63;;
3819;SDS011;1925;51.356;9.530;2023-06-10T07:38:41;5.57;;;3.67;;
3819;SDS011;1925;51.356;9.530;2023-06-10T07:41:08;4.03;;;3.73;;
3819;SDS011;1925;51.356;9.530;2023-06-10T07:43:34;4.90;;;3.07;;
3819;SDS011;1925;51.356;9.530;2023-06-10T07:46:00;6.40;;;4.57;;
3819;SDS011;1925;51.356;9.530;2023-06-10T07:48:26;5.83;;;3.73;;
3819;SDS011;1925;51.356;9.530;2023-06-10T07:50:52;7.33;;;4.10;;
3819;SDS011;1925;51.356;9.530;2023-06-10T07:53:18;3.80;;;3.50;;
3819;SDS011;1925;51.356;9.530;2023-06-10T07:55:44;4.50;;;4.10;;
3819;SDS011;1925;51.356;9.530;2023-06-10T07:58:10;8.90;;;3.73;;
3819;SDS011;1925;51.356;9.530;2023-06-10T08:00:35;10.73;;;4.50;;
3819;SDS011;1925;51.356;9.530;2023-06-10T08:03:02;4.73;;;4.10;;
3819;SDS011;1925;51.356;9.530;2023-06-10T08:05:28;4.50;;;4.10;;
3819;SDS011;1925;51.356;9.530;2023-06-10T08:07:54;5.87;;;5.30;;
3819;SDS011;1925;51.356;9.530;2023-06-10T08:10:20;4.03;;;3.70;;
3819;SDS011;1925;51.356;9.530;2023-06-10T08:12:46;7.23;;;3.90;;
3819;SDS011;1925;51.356;9.530;2023-06-10T08:15:12;7.63;;;4.13;;
3819;SDS011;1925;51.356;9.530;2023-06-10T08:17:38;5.47;;;4.00;;
3819;SDS011;1925;51.356;9.530;2023-06-10T08:20:05;4.40;;;3.67;;
3819;SDS011;1925;51.356;9.530;2023-06-10T08:22:31;7.57;;;3.90;;
3819;SDS011;1925;51.356;9.530;2023-06-10T08:24:57;5.40;;;3.70;;
3819;SDS011;1925;51.356;9.530;2023-06-10T08:27:24;7.63;;;4.00;;
3819;SDS011;1925;51.356;9.530;2023-06-10T08:29:50;8.03;;;4.43;;
3819;SDS011;1925;51.356;9.530;2023-06-10T08:32:16;5.50;;;4.33;;
3819;SDS011;1925;51.356;9.530;2023-06-10T08:34:42;11.53;;;4.47;;
3819;SDS011;1925;51.356;9.530;2023-06-10T08:37:08;5.70;;;4.33;;
3819;SDS011;1925;51.356;9.530;2023-06-10T08:39:34;6.07;;;4.10;;
3819;SDS011;1925;51.356;9.530;2023-06-10T08:44:46;7.00;;;4.43;;
3819;SDS011;1925;51.356;9.530;2023-06-10T08:47:15;5.90;;;5.20;;
3819;SDS011;1925;51.356;9.530;2023-06-10T08:49:45;5.50;;;5.00;;
3819;SDS011;1925;51.356;9.530;2023-06-10T08:52:18;4.90;;;4.10;;
3819;SDS011;1925;51.356;9.530;2023-06-10T08:54:59;7.90;;;5.40;;
3819;SDS011;1925;51.356;9.530;2023-06-10T08:57:25;5.77;;;4.80;;
3819;SDS011;1925;51.356;9.530;2023-06-10T08:59:55;5.37;;;4.83;;
3819;SDS011;1925;51.356;9.530;2023-06-10T09:02:21;6.13;;;5.53;;
3819;SDS011;1925;51.356;9.530;2023-06-10T09:04:48;6.27;;;4.87;;
3819;SDS011;1925;51.356;9.530;2023-06-10T09:07:15;5.70;;;4.87;;
3819;SDS011;1925;51.356;9.530;2023-06-10T09:09:41;6.73;;;4.83;;
3819;SDS011;1925;51.356;9.530;2023-06-10T09:12:07;5.40;;;4.90;;
3819;SDS011;1925;51.356;9.530;2023-06-10T09:14:33;5.70;;;5.20;;
3819;SDS011;1925;51.356;9.530;2023-06-10T09:16:59;5.20;;;4.70;;
3819;SDS011;1925;51.356;9.530;2023-06-10T09:19:25;7.50;;;5.77;;
3819;SDS011;1925;51.356;9.530;2023-06-10T09:21:52;7.87;;;4.83;;
3819;SDS011;1925;51.356;9.530;2023-06-10T09:24:18;5.80;;;5.40;;
3819;SDS011;1925;51.356;9.530;2023-06-10T09:26:44;6.63;;;5.00;;
3819;SDS011;1925;51.356;9.530;2023-06-10T09:29:11;7.93;;;5.37;;
3819;SDS011;1925;51.356;9.530;2023-06-10T09:31:37;6.73;;;5.10;;
3819;SDS011;1925;51.356;9.530;2023-06-10T09:34:06;8.20;;;4.33;;
3819;SDS011;1925;51.356;9.530;2023-06-10T09:36:33;5.77;;;5.27;;
3819;SDS011;1925;51.356;9.530;2023-06-10T09:38:59;6.63;;;4.70;;
3819;SDS011;1925;51.356;9.530;2023-06-10T09:41:32;6.60;;;4.40;;
3819;SDS011;1925;51.356;9.530;2023-06-10T09:43:58;5.40;;;4.50;;
3819;SDS011;1925;51.356;9.530;2023-06-10T09:46:25;5.23;;;4.83;;
3819;SDS011;1925;51.356;9.530;2023-06-10T09:48:56;8.03;;;5.57;;
3819;SDS011;1925;51.356;9.530;2023-06-10T09:51:23;5.83;;;4.67;;
3819;SDS011;1925;51.356;9.530;2023-06-10T09:53:50;9.47;;;4.57;;
3819;SDS011;1925;51.356;9.530;2023-06-10T09:56:16;11.57;;;5.43;;
3819;SDS011;1925;51.356;9.530;2023-06-10T09:58:42;5.50;;;5.03;;
3819;SDS011;1925;51.356;9.530;2023-06-10T10:01:11;6.90;;;5.30;;
3819;SDS011;1925;51.356;9.530;2023-06-10T10:03:47;5.97;;;5.47;;
3819;SDS011;1925;51.356;9.530;2023-06-10T10:06:14;8.27;;;5.30;;
3819;SDS011;1925;51.356;9.530;2023-06-10T10:08:40;9.40;;;5.63;;
3819;SDS011;1925;51.356;9.530;2023-06-10T10:11:06;6.53;;;5.80;;
3819;SDS011;1925;51.356;9.530;2023-06-10T10:13:33;6.17;;;5.47;;
3819;SDS011;1925;51.356;9.530;2023-06-10T10:16:00;7.43;;;5.73;;
3819;SDS011;1925;51.356;9.530;2023-06-10T10:18:28;6.53;;;5.97;;
3819;SDS011;1925;51.356;9.530;2023-06-10T10:20:55;6.30;;;5.80;;
3819;SDS011;1925;51.356;9.530;2023-06-10T10:23:24;12.27;;;5.57;;
3819;SDS011;1925;51.356;9.530;2023-06-10T10:25:53;5.70;;;5.20;;
3819;SDS011;1925;51.356;9.530;2023-06-10T10:28:21;6.60;;;5.50;;
3819;SDS011;1925;51.356;9.530;2023-06-10T10:30:50;6.63;;;5.90;;
3819;SDS011;1925;51.356;9.530;2023-06-10T10:33:18;6.57;;;5.80;;
3819;SDS011;1925;51.356;9.530;2023-06-10T10:35:45;6.30;;;5.60;;
3819;SDS011;1925;51.356;9.530;2023-06-10T10:38:11;6.07;;;5.57;;
3819;SDS011;1925;51.356;9.530;2023-06-10T10:40:37;7.03;;;6.20;;
3819;SDS011;1925;51.356;9.530;2023-06-10T10:43:04;8.80;;;5.40;;
3819;SDS011;1925;51.356;9.530;2023-06-10T10:45:31;8.80;;;5.80;;
3819;SDS011;1925;51.356;9.530;2023-06-10T10:47:58;7.63;;;5.00;;
3819;SDS011;1925;51.356;9.530;2023-06-10T10:50:30;8.90;;;5.40;;
3819;SDS011;1925;51.356;9.530;2023-06-10T10:52:56;7.10;;;6.03;;
3819;SDS011;1925;51.356;9.530;2023-06-10T10:55:24;5.60;;;5.10;;
3819;SDS011;1925;51.356;9.530;2023-06-10T10:58:24;5.60;;;5.20;;
3819;SDS011;1925;51.356;9.530;2023-06-10T11:00:43;10.13;;;5.60;;
3819;SDS011;1925;51.356;9.530;2023-06-10T11:03:13;5.63;;;5.13;;
3819;SDS011;1925;51.356;9.530;2023-06-10T11:05:42;6.07;;;5.57;;
3819;SDS011;1925;51.356;9.530;2023-06-10T11:10:59;5.87;;;5.37;;
3819;SDS011;1925;51.356;9.530;2023-06-10T11:13:25;6.33;;;5.83;;
3819;SDS011;1925;51.356;9.530;2023-06-10T11:15:51;6.27;;;4.67;;
3819;SDS011;1925;51.356;9.530;2023-06-10T11:23:24;5.67;;;5.23;;
3819;SDS011;1925;51.356;9.530;2023-06-10T11:25:50;8.63;;;6.03;;
3819;SDS011;1925;51.356;9.530;2023-06-10T11:28:19;6.43;;;5.83;;
3819;SDS011;1925;51.356;9.530;2023-06-10T11:30:46;7.03;;;5.30;;
3819;SDS011;1925;51.356;9.530;2023-06-10T11:33:16;5.10;;;4.60;;
3819;SDS011;1925;51.356;9.530;2023-06-10T11:35:42;5.70;;;5.20;;
3819;SDS011;1925;51.356;9.530;2023-06-10T11:38:09;5.97;;;5.47;;
3819;SDS011;1925;51.356;9.530;2023-06-10T11:40:36;12.07;;;6.50;;
3819;SDS011;1925;51.356;9.530;2023-06-10T11:43:03;7.67;;;6.00;;
3819;SDS011;1925;51.356;9.530;2023-06-10T11:45:30;5.70;;;5.20;;
3819;SDS011;1925;51.356;9.530;2023-06-10T11:47:56;9.60;;;5.70;;
3819;SDS011;1925;51.356;9.530;2023-06-10T11:50:31;8.70;;;5.90;;
3819;SDS011;1925;51.356;9.530;2023-06-10T11:52:58;6.87;;;6.17;;
3819;SDS011;1925;51.356;9.530;2023-06-10T11:55:40;5.40;;;4.90;;
3819;SDS011;1925;51.356;9.530;2023-06-10T11:58:19;10.03;;;5.50;;
3819;SDS011;1925;51.356;9.530;2023-06-10T12:00:46;8.00;;;5.30;;
3819;SDS011;1925;51.356;9.530;2023-06-10T12:03:13;7.23;;;6.53;;
3819;SDS011;1925;51.356;9.530;2023-06-10T12:05:39;7.47;;;6.10;;
3819;SDS011;1925;51.356;9.530;2023-06-10T12:08:09;6.37;;;5.80;;
3819;SDS011;1925;51.356;9.530;2023-06-10T12:10:44;9.13;;;5.83;;
3819;SDS011;1925;51.356;9.530;2023-06-10T12:13:10;10.70;;;5.70;;
3819;SDS011;1925;51.356;9.530;2023-06-10T12:15:36;5.70;;;5.20;;
3819;SDS011;1925;51.356;9.530;2023-06-10T12:18:02;10.63;;;5.30;;
3819;SDS011;1925;51.356;9.530;2023-06-10T12:20:29;5.93;;;5.37;;
3819;SDS011;1925;51.356;9.530;2023-06-10T12:22:59;6.83;;;5.90;;
3819;SDS011;1925;51.356;9.530;2023-06-10T12:25:25;6.60;;;5.67;;
3819;SDS011;1925;51.356;9.530;2023-06-10T12:27:52;11.10;;;5.87;;
3819;SDS011;1925;51.356;9.530;2023-06-10T12:30:22;5.20;;;4.80;;
3819;SDS011;1925;51.356;9.530;2023-06-10T12:32:49;6.97;;;5.90;;
3819;SDS011;1925;51.356;9.530;2023-06-10T12:35:25;8.67;;;5.93;;
3819;SDS011;1925;51.356;9.530;2023-06-10T12:37:59;8.03;;;6.13;;
3819;SDS011;1925;51.356;9.530;2023-06-10T12:40:34;5.73;;;5.33;;
3819;SDS011;1925;51.356;9.530;2023-06-10T12:43:01;5.67;;;4.97;;
3819;SDS011;1925;51.356;9.530;2023-06-10T12:45:30;6.37;;;5.77;;
3819;SDS011;1925;51.356;9.530;2023-06-10T12:48:06;5.20;;;4.70;;
3819;SDS011;1925;51.356;9.530;2023-06-10T12:50:34;6.13;;;5.63;;
3819;SDS011;1925;51.356;9.530;2023-06-10T12:53:02;6.33;;;5.60;;
3819;SDS011;1925;51.356;9.530;2023-06-10T12:55:28;5.50;;;5.00;;
3819;SDS011;1925;51.356;9.530;2023-06-10T12:57:54;5.90;;;5.40;;
3819;SDS011;1925;51.356;9.530;2023-06-10T13:00:21;6.00;;;4.90;;
3819;SDS011;1925;51.356;9.530;2023-06-10T13:02:50;5.13;;;4.73;;
3819;SDS011;1925;51.356;9.530;2023-06-10T13:05:17;6.10;;;5.50;;
3819;SDS011;1925;51.356;9.530;2023-06-10T13:07:43;9.93;;;4.77;;
3819;SDS011;1925;51.356;9.530;2023-06-10T13:10:09;5.63;;;4.60;;
3819;SDS011;1925;51.356;9.530;2023-06-10T13:12:35;7.47;;;5.37;;
3819;SDS011;1925;51.356;9.530;2023-06-10T13:15:02;5.83;;;4.90;;
3819;SDS011;1925;51.356;9.530;2023-06-10T13:17:28;6.93;;;5.37;;
3819;SDS011;1925;51.356;9.530;2023-06-10T13:19:54;6.20;;;4.87;;
3819;SDS011;1925;51.356;9.530;2023-06-10T13:22:20;6.97;;;5.97;;
3819;SDS011;1925;51.356;9.530;2023-06-10T13:24:46;9.70;;;5.50;;
3819;SDS011;1925;51.356;9.530;2023-06-10T13:27:12;5.07;;;4.20;;
3819;SDS011;1925;51.356;9.530;2023-06-10T13:29:41;4.93;;;4.43;;
3819;SDS011;1925;51.356;9.530;2023-06-10T13:32:07;6.43;;;3.83;;
3819;SDS011;1925;51.356;9.530;2023-06-10T13:34:33;4.20;;;3.90;;
3819;SDS011;1925;51.356;9.530;2023-06-10T13:36:59;6.63;;;4.53;;
3819;SDS011;1925;51.356;9.530;2023-06-10T13:39:25;6.07;;;4.20;;
3819;SDS011;1925;51.356;9.530;2023-06-10T13:41:52;4.23;;;3.93;;
3819;SDS011;1925;51.356;9.530;2023-06-10T13:44:17;4.20;;;3.90;;
3819;SDS011;1925;51.356;9.530;2023-06-10T13:46:43;6.03;;;3.60;;
3819;SDS011;1925;51.356;9.530;2023-06-10T13:49:09;4.60;;;4.20;;
3819;SDS011;1925;51.356;9.530;2023-06-10T13:51:36;5.03;;;4.63;;
3819;SDS011;1925;51.356;9.530;2023-06-10T13:54:02;5.70;;;5.03;;
3819;SDS011;1925;51.356;9.530;2023-06-10T13:56:28;5.10;;;4.33;;
3819;SDS011;1925;51.356;9.530;2023-06-10T13:58:54;4.73;;;4.30;;
3819;SDS011;1925;51.356;9.530;2023-06-10T14:01:20;5.27;;;4.87;;
3819;SDS011;1925;51.356;9.530;2023-06-10T14:03:46;5.27;;;4.77;;
3819;SDS011;1925;51.356;9.530;2023-06-10T14:06:12;4.90;;;4.60;;
3819;SDS011;1925;51.356;9.530;2023-06-10T14:08:40;5.90;;;5.40;;
3819;SDS011;1925;51.356;9.530;2023-06-10T14:11:06;7.50;;;4.90;;
3819;SDS011;1925;51.356;9.530;2023-06-10T14:13:32;4.97;;;4.50;;
3819;SDS011;1925;51.356;9.530;2023-06-10T14:15:58;4.50;;;4.10;;
3819;SDS011;1925;51.356;9.530;2023-06-10T14:18:27;4.87;;;4.37;;
3819;SDS011;1925;51.356;9.530;2023-06-10T14:20:53;5.20;;;4.70;;
3819;SDS011;1925;51.356;9.530;2023-06-10T14:23:19;5.37;;;4.87;;
3819;SDS011;1925;51.356;9.530;2023-06-10T14:25:45;4.90;;;4.43;;
3819;SDS011;1925;51.356;9.530;2023-06-10T14:28:11;4.70;;;4.30;;
3819;SDS011;1925;51.356;9.530;2023-06-10T14:30:37;5.90;;;4.97;;
3819;SDS011;1925;51.356;9.530;2023-06-10T14:33:03;5.67;;;5.17;;
3819;SDS011;1925;51.356;9.530;2023-06-10T14:35:29;5.80;;;5.30;;
3819;SDS011;1925;51.356;9.530;2023-06-10T14:37:55;5.10;;;4.70;;
3819;SDS011;1925;51.356;9.530;2023-06-10T14:40:21;5.33;;;4.50;;
3819;SDS011;1925;51.356;9.530;2023-06-10T14:42:48;5.40;;;5.00;;
3819;SDS011;1925;51.356;9.530;2023-06-10T14:45:14;4.90;;;4.50;;
3819;SDS011;1925;51.356;9.530;2023-06-10T14:47:40;7.50;;;5.70;;
3819;SDS011;1925;51.356;9.530;2023-06-10T14:50:06;6.00;;;5.50;;
3819;SDS011;1925;51.356;9.530;2023-06-10T14:52:32;5.70;;;5.20;;
3819;SDS011;1925;51.356;9.530;2023-06-10T14:54:58;5.20;;;4.80;;
3819;SDS011;1925;51.356;9.530;2023-06-10T14:57:24;5.13;;;4.73;;
3819;SDS011;1925;51.356;9.530;2023-06-10T14:59:50;5.70;;;5.20;;
3819;SDS011;1925;51.356;9.530;2023-06-10T15:02:16;6.63;;;4.67;;
3819;SDS011;1925;51.356;9.530;2023-06-10T15:04:42;5.77;;;5.33;;
3819;SDS011;1925;51.356;9.530;2023-06-10T15:07:08;4.73;;;4.33;;
3819;SDS011;1925;51.356;9.530;2023-06-10T15:09:34;6.87;;;5.67;;
3819;SDS011;1925;51.356;9.530;2023-06-10T15:12:00;5.37;;;4.87;;
3819;SDS011;1925;51.356;9.530;2023-06-10T15:14:26;6.00;;;4.80;;
3819;SDS011;1925;51.356;9.530;2023-06-10T15:16:52;6.33;;;4.90;;
3819;SDS011;1925;51.356;9.530;2023-06-10T15:19:17;5.40;;;4.90;;
3819;SDS011;1925;51.356;9.530;2023-06-10T15:21:44;8.43;;;5.37;;
3819;SDS011;1925;51.356;9.530;2023-06-10T15:24:09;5.80;;;4.90;;